< < Back
Terminal Aerodrome Forecast


Current Version              Previous Versions:   1  2  3  4  5  6  7  8  9  

Terminal Aerodrome Forecast

422
FTUS42 KCHS 261137 CCA
TAFCHS
TAF COR
KCHS 261137Z 2612/2712 04010KT P6SM SCT007 BKN015
      TEMPO 2612/2614 BKN007
     FM261400 06011KT P6SM BKN040
     FM262300 09007KT P6SM FEW015 SCT060
     FM270600 02003KT P6SM FEW008 SCT015=

Latest METAR

391
SAUS80 KWBC 261300 CCA
MTRCHS
METAR KCHS 261256Z 05008KT 10SM FEW009 BKN011 BKN025 27/22 A3014 RMK AO2
SLP207 T02670222


USA.gov is the U.S. government's official web portal to all federal, state and local government web resources and services.